St Gallen Altenrhein Airport LSZR

Airport Data

Name: St Gallen Altenrhein Airport

Ident: LSZR

Lat: 47.48500061

Long: 9.560770035

Elevation: 1306 ft

IataCode: ACH

City: Altenrhein

Metar

2021/09/28 06:50
LSZR 280650Z VRB03KT 9999 BKN020 13/11 Q1025 NOSIG RMK C

Taf

Add a Webcam Url. We will unlock it as soon is possible. Thank you:
Url: Title: